Bladen, Nebraska
Current Conditions -  °F | °C
As of 9:53 PM on Monday 22 Dec 2014 (Local Time) from KHSI Reporting Station
Broken Clouds Broken Clouds  
Wind Chill: 28°   Ceiling: 6000
Heat Index: 36°   Visibility: 10mi
Dew Point: 29°   Wind: 13mph
Humidity: 76%   Direction: 290°WNW
Pressure: 29.53"   Gusts: 26mph
Location:  40.32°N, 98.59°W
Report Text: KHSI 230353Z AUTO 29011G23KT 10SM FEW028 FEW034 BKN060 02/M02 A2953 RMK AO2 SLP010 T00221017
Loading
Personal Weather Stations






























Interactive Weather Map New forecast layout! Learn more

10-Day Weather Forecast

Advertisements
Track Severe Weather on mobile